Terminal Aerodrome Forecast
Issued by NWS

Home | Current Version | Previous Version | Text Only | Print | Product List | Glossary On
Versions: 1 2 3 4 5 6 7 8 9 10 11 12 13 14 15 16 17 18 19 20
000
FTUS42 KMLB 292340
TAFFPR
TAF
KFPR 292340Z 3000/3024 23007KT P6SM FEW040 SCT100 SCT250
     FM300600 25004KT P6SM SCT005 SCT250
     FM301400 23008KT P6SM SCT020 SCT050 BKN250
     FM301900 22010KT P6SM VCTS SCT035CB SCT080 BKN250
      TEMPO 3020/3022 3SM TSRA BKN030CB=

USA.gov is the U.S. government's official web portal to all federal, state and local government web resources and services.